createdAt,value
2018-12-05T00:00:28.865Z,5.50
2018-12-05T00:02:57.528Z,5.50
2018-12-05T00:05:26.825Z,5.50
2018-12-05T00:07:55.473Z,5.40
2018-12-05T00:10:24.015Z,5.40
2018-12-05T00:12:52.629Z,5.40
2018-12-05T00:15:21.114Z,5.40
2018-12-05T00:17:49.346Z,5.40
2018-12-05T00:20:17.629Z,5.40
2018-12-05T00:22:46.653Z,5.40
2018-12-05T00:25:15.416Z,5.30
2018-12-05T00:27:44.205Z,5.20
2018-12-05T00:30:13.673Z,5.20
2018-12-05T00:32:41.913Z,5.20
2018-12-05T00:35:11.975Z,5.10
2018-12-05T00:37:40.490Z,5.10
2018-12-05T00:40:09.493Z,5.10
2018-12-05T00:42:38.002Z,5.20
2018-12-05T00:45:07.548Z,5.30
2018-12-05T00:47:35.947Z,5.20
2018-12-05T00:50:04.973Z,5.20
2018-12-05T00:52:34.137Z,5.20
2018-12-05T00:55:02.558Z,5.10
2018-12-05T00:57:30.806Z,5.20
2018-12-05T00:59:59.907Z,5.10
2018-12-05T01:02:28.402Z,5.20
2018-12-05T01:04:57.599Z,5.20
2018-12-05T01:07:26.043Z,5.20
2018-12-05T01:09:54.657Z,5.20
2018-12-05T01:12:23.442Z,5.20
2018-12-05T01:14:52.229Z,5.10
2018-12-05T01:17:20.714Z,5.00
2018-12-05T01:19:49.604Z,4.90
2018-12-05T01:22:18.085Z,4.80
2018-12-05T01:24:46.584Z,4.70
2018-12-05T01:27:15.088Z,4.60
2018-12-05T01:29:43.938Z,4.60
2018-12-05T01:32:12.182Z,4.70
2018-12-05T01:34:40.554Z,4.70
2018-12-05T01:37:08.785Z,4.70
2018-12-05T01:39:37.242Z,4.70
2018-12-05T01:42:05.650Z,4.90
2018-12-05T01:44:33.970Z,5.00
2018-12-05T01:47:02.318Z,5.00
2018-12-05T01:49:31.072Z,5.10
2018-12-05T01:51:59.569Z,5.20
2018-12-05T01:54:27.910Z,5.20
2018-12-05T01:56:56.160Z,5.20
2018-12-05T01:59:24.812Z,5.20
2018-12-05T02:01:54.374Z,5.20
2018-12-05T02:04:22.952Z,5.10
2018-12-05T02:06:51.886Z,5.00
2018-12-05T02:09:20.213Z,5.00
2018-12-05T02:11:49.054Z,4.90
2018-12-05T02:14:18.072Z,4.90
2018-12-05T02:16:47.415Z,4.80
2018-12-05T02:19:15.766Z,4.80
2018-12-05T02:21:45.149Z,4.70
2018-12-05T02:24:13.682Z,4.60
2018-12-05T02:26:42.813Z,4.60
2018-12-05T02:29:12.089Z,4.60
2018-12-05T02:31:40.437Z,4.60
2018-12-05T02:34:08.669Z,4.60
2018-12-05T02:36:37.495Z,4.50
2018-12-05T02:39:08.910Z,4.50
2018-12-05T02:41:37.158Z,4.50
2018-12-05T02:44:05.517Z,4.50
2018-12-05T02:46:34.544Z,4.40
2018-12-05T02:49:02.761Z,4.30
2018-12-05T02:51:32.073Z,4.20
2018-12-05T02:54:01.825Z,4.10
2018-12-05T02:56:30.525Z,4.10
2018-12-05T02:58:59.781Z,4.00
2018-12-05T03:01:28.352Z,4.00
2018-12-05T03:03:57.417Z,4.00
2018-12-05T03:06:27.482Z,4.00
2018-12-05T03:08:55.814Z,4.00
2018-12-05T03:11:24.407Z,3.90
2018-12-05T03:13:52.914Z,3.90
2018-12-05T03:16:21.154Z,3.80
2018-12-05T03:18:49.431Z,3.70
2018-12-05T03:21:17.888Z,3.60
2018-12-05T03:23:46.298Z,3.50
2018-12-05T03:26:14.598Z,3.50
2018-12-05T03:28:43.265Z,3.60
2018-12-05T03:31:11.727Z,3.60
2018-12-05T03:33:40.059Z,3.60
2018-12-05T03:36:08.314Z,3.60
2018-12-05T03:38:36.795Z,3.60
2018-12-05T03:41:05.208Z,3.50
2018-12-05T03:43:33.614Z,3.40
2018-12-05T03:46:02.609Z,3.40
2018-12-05T03:48:31.205Z,3.30
2018-12-05T03:50:59.386Z,3.40
2018-12-05T03:53:28.393Z,3.30
2018-12-05T03:55:56.961Z,3.40
2018-12-05T03:58:25.731Z,3.50
2018-12-05T04:00:54.254Z,3.40
2018-12-05T04:03:22.938Z,3.50
2018-12-05T04:05:51.537Z,3.50
2018-12-05T04:08:21.493Z,3.50
2018-12-05T04:10:49.807Z,3.60
2018-12-05T04:13:19.085Z,3.60
2018-12-05T04:15:48.697Z,3.70
2018-12-05T04:18:17.655Z,3.70
2018-12-05T04:20:46.620Z,3.80
2018-12-05T04:23:16.108Z,3.80
2018-12-05T04:25:44.771Z,3.70
2018-12-05T04:28:13.413Z,3.70
2018-12-05T04:30:42.658Z,3.60
2018-12-05T04:33:12.333Z,3.60
2018-12-05T04:35:41.034Z,3.50
2018-12-05T04:38:09.709Z,3.50
2018-12-05T04:40:38.009Z,3.50
2018-12-05T04:43:06.553Z,3.50
2018-12-05T04:45:34.777Z,3.50
2018-12-05T04:48:03.156Z,3.50
2018-12-05T04:50:31.352Z,3.40
2018-12-05T04:52:59.573Z,3.30
2018-12-05T04:55:27.852Z,3.20
2018-12-05T04:57:56.529Z,3.10
2018-12-05T05:00:25.222Z,3.00
2018-12-05T05:02:53.616Z,3.00
2018-12-05T05:05:22.207Z,2.90
2018-12-05T05:07:50.753Z,2.90
2018-12-05T05:10:18.997Z,2.80
2018-12-05T05:12:47.450Z,2.80
2018-12-05T05:15:16.163Z,3.00
2018-12-05T05:17:44.973Z,3.10
2018-12-05T05:20:14.577Z,3.30
2018-12-05T05:22:43.011Z,3.40
2018-12-05T05:25:18.352Z,3.50
2018-12-05T05:27:46.617Z,3.60
2018-12-05T05:30:15.653Z,3.60
2018-12-05T05:32:45.894Z,3.60
2018-12-05T05:35:14.685Z,3.50
2018-12-05T05:37:43.276Z,3.50
2018-12-05T05:40:11.536Z,3.50
2018-12-05T05:42:39.955Z,3.40
2018-12-05T05:45:09.317Z,3.40
2018-12-05T05:47:38.154Z,3.50
2018-12-05T05:50:08.275Z,3.50
2018-12-05T05:52:36.610Z,3.50
2018-12-05T05:55:05.493Z,3.50
2018-12-05T05:57:33.746Z,3.50
2018-12-05T06:00:02.458Z,3.50
2018-12-05T06:02:31.894Z,3.60
2018-12-05T06:05:00.965Z,3.70
2018-12-05T06:07:29.808Z,3.70
2018-12-05T06:09:58.001Z,3.70
2018-12-05T06:12:26.643Z,3.70
2018-12-05T06:14:54.937Z,3.80
2018-12-05T06:17:24.714Z,3.80
2018-12-05T06:19:53.120Z,3.90
2018-12-05T06:22:21.711Z,4.00
2018-12-05T06:24:49.934Z,4.10
2018-12-05T06:27:18.721Z,4.10
2018-12-05T06:29:47.341Z,4.20
2018-12-05T06:32:15.579Z,4.20
2018-12-05T06:34:47.158Z,4.20
2018-12-05T06:37:15.633Z,4.10
2018-12-05T06:39:43.985Z,4.10
2018-12-05T06:42:12.306Z,4.10
2018-12-05T06:44:40.576Z,4.10
2018-12-05T06:47:09.950Z,4.10
2018-12-05T06:49:38.347Z,4.10
2018-12-05T06:52:06.556Z,4.20
2018-12-05T06:54:34.752Z,4.30
2018-12-05T06:57:03.601Z,4.40
2018-12-05T06:59:32.070Z,4.50
2018-12-05T07:02:00.602Z,4.50
2018-12-05T07:04:29.225Z,4.40
2018-12-05T07:06:57.541Z,4.30
2018-12-05T07:09:25.913Z,4.30
2018-12-05T07:11:54.225Z,4.20
2018-12-05T07:14:22.417Z,4.10
2018-12-05T07:16:51.228Z,4.10
2018-12-05T07:19:19.661Z,4.20
2018-12-05T07:21:47.912Z,4.20
2018-12-05T07:24:16.239Z,4.20
2018-12-05T07:26:44.700Z,4.20
2018-12-05T07:29:13.212Z,4.20
2018-12-05T07:31:41.479Z,4.30
2018-12-05T07:34:09.797Z,4.30
2018-12-05T07:36:37.996Z,4.30
2018-12-05T07:39:08.213Z,4.40
2018-12-05T07:41:36.541Z,4.30
2018-12-05T07:44:04.884Z,4.40
2018-12-05T07:46:33.258Z,4.40
2018-12-05T07:49:02.350Z,4.30
2018-12-05T07:51:30.890Z,4.30
2018-12-05T07:54:00.265Z,4.40
2018-12-05T07:56:28.718Z,4.40
2018-12-05T07:58:58.206Z,4.50
2018-12-05T08:01:26.477Z,4.60
2018-12-05T08:03:54.756Z,4.70
2018-12-05T08:06:23.432Z,4.80
2018-12-05T08:08:51.873Z,4.80
2018-12-05T08:11:20.162Z,4.90
2018-12-05T08:13:48.852Z,4.90
2018-12-05T08:16:17.028Z,4.90
2018-12-05T08:18:45.437Z,4.90
2018-12-05T08:21:13.694Z,5.00
2018-12-05T08:23:41.992Z,5.00
2018-12-05T08:26:10.253Z,5.10
2018-12-05T08:28:38.546Z,5.20
2018-12-05T08:31:06.833Z,5.20
2018-12-05T08:33:35.078Z,5.30
2018-12-05T08:36:03.334Z,5.40
2018-12-05T08:38:31.582Z,5.40
2018-12-05T08:41:00.115Z,5.50
2018-12-05T08:43:28.752Z,5.60
2018-12-05T08:45:57.480Z,5.70
2018-12-05T08:48:27.323Z,5.70
2018-12-05T08:50:55.566Z,5.90
2018-12-05T08:53:23.822Z,6.10
2018-12-05T08:55:52.117Z,6.10
2018-12-05T08:58:20.514Z,6.20
2018-12-05T09:00:48.814Z,6.20
2018-12-05T09:03:17.092Z,6.30
2018-12-05T09:05:45.669Z,6.30
2018-12-05T09:08:13.991Z,6.40
2018-12-05T09:10:42.304Z,6.50
2018-12-05T09:13:11.843Z,6.60
2018-12-05T09:15:40.101Z,6.70
2018-12-05T09:18:08.599Z,6.70
2018-12-05T09:20:36.849Z,6.70
2018-12-05T09:23:05.355Z,6.70
2018-12-05T09:25:33.819Z,6.80
2018-12-05T09:28:02.168Z,7.00
2018-12-05T09:30:30.882Z,7.20
2018-12-05T09:32:59.370Z,7.20
2018-12-05T09:35:27.821Z,7.30
2018-12-05T09:37:56.125Z,7.30
2018-12-05T09:40:24.354Z,7.30
2018-12-05T09:42:52.793Z,7.30
2018-12-05T09:45:20.983Z,7.30
2018-12-05T09:47:49.517Z,7.30
2018-12-05T09:50:17.825Z,7.40
2018-12-05T09:52:46.604Z,7.30
2018-12-05T09:55:15.013Z,7.50
2018-12-05T09:57:43.286Z,7.50
2018-12-05T10:00:11.669Z,7.70
2018-12-05T10:02:40.129Z,7.70
2018-12-05T10:05:08.925Z,7.70
2018-12-05T10:07:37.246Z,7.70
2018-12-05T10:10:07.132Z,7.80
2018-12-05T10:12:35.665Z,7.90
2018-12-05T10:15:04.390Z,8.00
2018-12-05T10:17:32.590Z,8.00
2018-12-05T10:20:01.047Z,8.10
2018-12-05T10:22:29.369Z,8.10
2018-12-05T10:24:57.622Z,8.10
2018-12-05T10:27:25.835Z,8.10
2018-12-05T10:29:54.341Z,8.30
2018-12-05T10:32:23.851Z,8.30
2018-12-05T10:34:52.211Z,8.30
2018-12-05T10:37:20.661Z,8.30
2018-12-05T10:39:48.874Z,8.40
2018-12-05T10:42:17.127Z,8.40
2018-12-05T10:44:45.457Z,8.40
2018-12-05T10:47:13.874Z,8.60
2018-12-05T10:49:42.452Z,8.60
2018-12-05T10:52:10.705Z,8.60
2018-12-05T10:54:39.485Z,8.70
2018-12-05T10:57:07.932Z,8.90
2018-12-05T10:59:36.419Z,9.00
2018-12-05T11:02:10.262Z,9.00
2018-12-05T11:05:46.158Z,9.00
2018-12-05T11:08:21.898Z,9.00
2018-12-05T11:10:56.669Z,8.90
2018-12-05T11:13:30.352Z,8.90
2018-12-05T11:16:04.081Z,8.90
2018-12-05T11:18:37.830Z,8.80
2018-12-05T11:21:11.774Z,8.80
2018-12-05T11:23:47.478Z,8.80
2018-12-05T11:26:19.294Z,8.90
2018-12-05T11:28:48.224Z,9.00
2018-12-05T11:31:16.490Z,9.00
2018-12-05T11:33:44.927Z,9.10
2018-12-05T11:36:13.199Z,9.20
2018-12-05T11:38:41.686Z,9.20
2018-12-05T11:41:10.077Z,9.40
2018-12-05T11:43:38.647Z,9.70
2018-12-05T11:46:07.214Z,10.00
2018-12-05T11:48:35.508Z,10.20
2018-12-05T11:51:03.902Z,10.40
2018-12-05T11:53:32.094Z,10.40
2018-12-05T11:56:00.464Z,10.40
2018-12-05T11:58:28.969Z,10.40
2018-12-05T12:00:57.538Z,10.30
2018-12-05T12:03:26.537Z,10.10
2018-12-05T12:05:56.759Z,10.00
2018-12-05T12:08:25.285Z,9.80
2018-12-05T12:10:53.762Z,9.80
2018-12-05T12:13:22.069Z,9.70
2018-12-05T12:15:50.394Z,9.70
2018-12-05T12:18:19.479Z,9.90
2018-12-05T12:20:47.925Z,10.00
2018-12-05T12:23:16.117Z,10.10
2018-12-05T12:25:44.486Z,10.00
2018-12-05T12:28:12.769Z,10.10
2018-12-05T12:30:41.974Z,10.10
2018-12-05T12:33:10.952Z,10.10
2018-12-05T12:35:39.366Z,10.20
2018-12-05T12:38:07.749Z,10.30
2018-12-05T12:40:36.037Z,10.40
2018-12-05T12:43:04.362Z,10.40
2018-12-05T12:45:32.895Z,10.50
2018-12-05T12:48:01.326Z,10.40
2018-12-05T12:50:29.581Z,10.50
2018-12-05T12:52:58.377Z,10.50
2018-12-05T12:55:26.654Z,10.50
2018-12-05T12:57:55.056Z,10.50
2018-12-05T13:00:23.271Z,10.50
2018-12-05T13:02:51.622Z,10.40
2018-12-05T13:05:19.949Z,10.40
2018-12-05T13:07:48.666Z,10.40
2018-12-05T13:10:16.849Z,10.40
2018-12-05T13:12:45.304Z,10.40
2018-12-05T13:15:13.711Z,10.50
2018-12-05T13:17:42.181Z,10.50
2018-12-05T13:20:10.545Z,10.60
2018-12-05T13:22:39.278Z,10.50
2018-12-05T13:25:07.645Z,10.40
2018-12-05T13:27:35.833Z,10.30
2018-12-05T13:30:04.934Z,10.10
2018-12-05T13:32:33.212Z,10.00
2018-12-05T13:35:01.489Z,9.90
2018-12-05T13:37:29.997Z,9.80
2018-12-05T13:39:58.338Z,9.80
2018-12-05T13:42:26.638Z,9.70
2018-12-05T13:44:55.222Z,9.70
2018-12-05T13:47:23.389Z,9.70
2018-12-05T13:49:52.086Z,9.80
2018-12-05T13:52:20.702Z,9.90
2018-12-05T13:54:49.197Z,9.90
2018-12-05T13:57:17.497Z,10.00
2018-12-05T13:59:45.917Z,10.00
2018-12-05T14:02:14.251Z,10.00
2018-12-05T14:04:42.650Z,9.90
2018-12-05T14:07:11.199Z,9.90
2018-12-05T14:09:39.515Z,10.00
2018-12-05T14:12:09.872Z,9.90
2018-12-05T14:14:38.077Z,9.80
2018-12-05T14:17:06.505Z,9.70
2018-12-05T14:19:34.766Z,9.70
2018-12-05T14:22:03.961Z,9.60
2018-12-05T14:24:32.399Z,9.60
2018-12-05T14:27:00.686Z,9.60
2018-12-05T14:29:29.081Z,9.50
2018-12-05T14:31:57.433Z,9.50
2018-12-05T14:34:25.638Z,9.40
2018-12-05T14:36:54.082Z,9.40
2018-12-05T14:39:22.659Z,9.40
2018-12-05T14:41:51.006Z,9.30
2018-12-05T14:44:19.333Z,9.30
2018-12-05T14:46:49.042Z,9.40
2018-12-05T14:49:18.137Z,9.30
2018-12-05T14:51:46.589Z,9.20
2018-12-05T14:54:14.794Z,9.10
2018-12-05T14:56:42.987Z,9.00
2018-12-05T14:59:11.382Z,8.90
2018-12-05T15:01:39.614Z,8.80
2018-12-05T15:04:08.030Z,8.70
2018-12-05T15:06:36.283Z,8.70
2018-12-05T15:09:07.216Z,8.60
2018-12-05T15:11:35.774Z,8.60
2018-12-05T15:14:04.198Z,8.40
2018-12-05T15:16:32.540Z,8.40
2018-12-05T15:19:00.841Z,8.30
2018-12-05T15:21:29.226Z,8.30
2018-12-05T15:23:57.498Z,8.20
2018-12-05T15:26:25.825Z,8.10
2018-12-05T15:28:54.116Z,8.10
2018-12-05T15:31:22.314Z,8.00
2018-12-05T15:33:50.658Z,8.00
2018-12-05T15:36:19.185Z,8.00
2018-12-05T15:38:47.509Z,8.00
2018-12-05T15:41:15.862Z,7.90
2018-12-05T15:43:44.155Z,7.90
2018-12-05T15:46:12.483Z,7.80
2018-12-05T15:48:41.980Z,7.80
2018-12-05T15:51:10.925Z,7.70
2018-12-05T15:53:39.477Z,7.70
2018-12-05T15:56:08.161Z,7.70
2018-12-05T15:58:36.592Z,7.60
2018-12-05T16:01:05.154Z,7.70
2018-12-05T16:03:33.401Z,7.60
2018-12-05T16:06:02.701Z,7.60
2018-12-05T16:08:31.434Z,7.60
2018-12-05T16:10:59.938Z,7.60
2018-12-05T16:13:28.157Z,7.50
2018-12-05T16:15:56.395Z,7.50
2018-12-05T16:18:25.046Z,7.50
2018-12-05T16:20:53.321Z,7.50
2018-12-05T16:23:21.782Z,7.50
2018-12-05T16:25:50.136Z,7.50
2018-12-05T16:28:18.375Z,7.50
2018-12-05T16:30:47.082Z,7.50
2018-12-05T16:33:15.999Z,7.50
2018-12-05T16:35:44.522Z,7.50
2018-12-05T16:38:12.870Z,7.50
2018-12-05T16:40:41.094Z,7.50
2018-12-05T16:43:09.619Z,7.50
2018-12-05T16:45:37.842Z,7.50
2018-12-05T16:48:06.376Z,7.50
2018-12-05T16:50:34.729Z,7.40
2018-12-05T16:53:02.933Z,7.40
2018-12-05T16:55:31.436Z,7.40
2018-12-05T16:58:00.205Z,7.40
2018-12-05T17:00:28.761Z,7.40
2018-12-05T17:02:56.959Z,7.40
2018-12-05T17:05:25.917Z,7.40
2018-12-05T17:07:55.016Z,7.40
2018-12-05T17:10:23.425Z,7.40
2018-12-05T17:12:51.679Z,7.30
2018-12-05T17:15:20.565Z,7.30
2018-12-05T17:17:49.499Z,7.20
2018-12-05T17:20:18.210Z,7.10
2018-12-05T17:22:47.138Z,7.00
2018-12-05T17:25:15.376Z,6.90
2018-12-05T17:27:44.814Z,7.00
2018-12-05T17:30:13.758Z,6.90
2018-12-05T17:32:42.207Z,6.90
2018-12-05T17:35:10.988Z,6.80
2018-12-05T17:37:39.844Z,6.80
2018-12-05T17:40:08.298Z,6.80
2018-12-05T17:42:38.362Z,6.80
2018-12-05T17:45:06.983Z,6.80
2018-12-05T17:47:35.335Z,6.80
2018-12-05T17:50:05.379Z,6.80
2018-12-05T17:52:33.649Z,6.80
2018-12-05T17:55:04.232Z,6.80
2018-12-05T17:57:32.845Z,6.80
2018-12-05T18:00:01.298Z,6.80
2018-12-05T18:02:30.798Z,6.80
2018-12-05T18:04:59.410Z,6.80
2018-12-05T18:07:28.402Z,6.80
2018-12-05T18:09:57.330Z,6.80
2018-12-05T18:12:26.401Z,6.70
2018-12-05T18:14:55.282Z,6.70
2018-12-05T18:17:24.250Z,6.70
2018-12-05T18:19:53.446Z,6.70
2018-12-05T18:22:21.883Z,6.70
2018-12-05T18:24:50.885Z,6.60
2018-12-05T18:27:19.533Z,6.60
2018-12-05T18:29:48.165Z,6.60
2018-12-05T18:32:16.433Z,6.50
2018-12-05T18:34:46.210Z,6.40
2018-12-05T18:37:14.586Z,6.40
2018-12-05T18:39:43.541Z,6.40
2018-12-05T18:42:12.977Z,6.40
2018-12-05T18:44:41.409Z,6.40
2018-12-05T18:47:10.437Z,6.40
2018-12-05T18:49:38.875Z,6.40
2018-12-05T18:52:08.096Z,6.40
2018-12-05T18:54:36.733Z,6.40
2018-12-05T18:57:09.356Z,6.50
2018-12-05T18:59:36.061Z,6.50
2018-12-05T19:02:04.857Z,6.40
2018-12-05T19:04:33.169Z,6.30
2018-12-05T19:07:01.646Z,6.20
2018-12-05T19:09:30.274Z,6.10
2018-12-05T19:11:58.884Z,6.00
2018-12-05T19:14:32.592Z,5.90
2018-12-05T19:17:00.869Z,5.90
2018-12-05T19:19:29.436Z,5.90
2018-12-05T19:21:57.761Z,5.90
2018-12-05T19:24:26.540Z,5.80
2018-12-05T19:26:55.094Z,5.80
2018-12-05T19:29:23.318Z,5.80
2018-12-05T19:31:52.246Z,5.80
2018-12-05T19:34:21.152Z,5.90
2018-12-05T19:36:49.848Z,5.90
2018-12-05T19:39:18.126Z,5.90
2018-12-05T19:41:46.977Z,5.90
2018-12-05T19:44:15.970Z,5.90
2018-12-05T19:46:44.604Z,5.90
2018-12-05T19:49:12.947Z,5.90
2018-12-05T19:51:41.638Z,6.00
2018-12-05T19:54:10.558Z,5.90
2018-12-05T19:56:39.549Z,5.90
2018-12-05T19:59:08.606Z,5.90
2018-12-05T20:01:37.599Z,5.80
2018-12-05T20:04:06.118Z,5.80
2018-12-05T20:06:35.072Z,5.80
2018-12-05T20:09:06.793Z,5.80
2018-12-05T20:11:35.575Z,5.70
2018-12-05T20:14:04.909Z,5.70
2018-12-05T20:16:34.591Z,5.80
2018-12-05T20:19:03.864Z,5.90
2018-12-05T20:21:33.605Z,6.10
2018-12-05T20:24:02.283Z,6.10
2018-12-05T20:26:30.597Z,6.00
2018-12-05T20:28:59.912Z,5.90
2018-12-05T20:31:29.748Z,5.90
2018-12-05T20:33:58.050Z,5.80
2018-12-05T20:36:26.447Z,5.80
2018-12-05T20:38:55.789Z,5.80
2018-12-05T20:41:31.289Z,5.90
2018-12-05T20:43:55.247Z,6.00
2018-12-05T20:46:24.001Z,6.10
2018-12-05T20:48:53.954Z,6.30
2018-12-05T20:51:22.666Z,6.40
2018-12-05T20:53:51.250Z,6.40
2018-12-05T20:56:19.569Z,6.40
2018-12-05T20:58:48.037Z,6.40
2018-12-05T21:01:16.850Z,6.40
2018-12-05T21:03:45.197Z,6.40
2018-12-05T21:06:14.033Z,6.50
2018-12-05T21:08:43.397Z,6.60
2018-12-05T21:11:12.111Z,6.80
2018-12-05T21:13:42.564Z,7.10
2018-12-05T21:16:11.330Z,7.30
2018-12-05T21:18:39.989Z,7.40
2018-12-05T21:21:08.874Z,7.30
2018-12-05T21:23:38.951Z,7.20
2018-12-05T21:26:07.450Z,7.10
2018-12-05T21:28:36.443Z,6.90
2018-12-05T21:31:05.132Z,6.80
2018-12-05T21:33:33.846Z,6.80
2018-12-05T21:36:02.449Z,6.70
2018-12-05T21:38:31.346Z,6.50
2018-12-05T21:41:00.139Z,6.40
2018-12-05T21:43:28.472Z,6.40
2018-12-05T21:45:57.021Z,6.30
2018-12-05T21:48:25.762Z,6.20
2018-12-05T21:50:54.332Z,6.10
2018-12-05T21:53:23.609Z,6.10
2018-12-05T21:55:53.247Z,6.10
2018-12-05T21:58:22.220Z,6.00
2018-12-05T22:00:52.341Z,6.00
2018-12-05T22:03:24.931Z,6.00
2018-12-05T22:05:53.444Z,6.00
2018-12-05T22:08:23.002Z,6.10
2018-12-05T22:10:51.565Z,6.10
2018-12-05T22:13:20.016Z,6.10
2018-12-05T22:15:49.358Z,6.20
2018-12-05T22:18:18.385Z,6.20
2018-12-05T22:20:47.280Z,6.30
2018-12-05T22:23:16.438Z,6.30
2018-12-05T22:25:44.873Z,6.40
2018-12-05T22:28:13.138Z,6.40
2018-12-05T22:30:43.002Z,6.30
2018-12-05T22:33:12.177Z,6.40
2018-12-05T22:35:41.334Z,6.50
2018-12-05T22:38:09.814Z,6.40
2018-12-05T22:40:39.156Z,6.30
2018-12-05T22:43:08.247Z,6.30
2018-12-05T22:45:37.901Z,6.30
2018-12-05T22:48:07.307Z,6.30
2018-12-05T22:50:36.408Z,6.30
2018-12-05T22:53:05.612Z,6.30
2018-12-05T22:55:34.611Z,6.20
2018-12-05T22:58:03.756Z,6.20
2018-12-05T23:00:32.679Z,6.30
2018-12-05T23:03:02.265Z,6.30
2018-12-05T23:05:31.430Z,6.30
2018-12-05T23:08:00.753Z,6.40
2018-12-05T23:10:29.302Z,6.40
2018-12-05T23:12:58.322Z,6.40
2018-12-05T23:15:38.118Z,6.50
2018-12-05T23:18:06.493Z,6.60
2018-12-05T23:20:35.544Z,6.70
2018-12-05T23:23:04.149Z,6.70
2018-12-05T23:25:32.949Z,6.70
2018-12-05T23:28:01.205Z,6.70
2018-12-05T23:30:29.489Z,6.60
2018-12-05T23:32:57.965Z,6.70
2018-12-05T23:35:26.954Z,6.60
2018-12-05T23:37:56.461Z,6.50
2018-12-05T23:40:25.063Z,6.50
2018-12-05T23:42:55.004Z,6.50
2018-12-05T23:45:23.524Z,6.50
2018-12-05T23:47:52.051Z,6.60
2018-12-05T23:50:20.378Z,6.60
2018-12-05T23:52:49.026Z,6.50
2018-12-05T23:55:18.082Z,6.40
2018-12-05T23:57:46.672Z,6.40
